createdAt,value
2022-11-05T00:01:10.953Z,19.62
2022-11-05T00:03:38.991Z,19.60
2022-11-05T00:06:10.688Z,19.60
2022-11-05T00:08:40.351Z,19.58
2022-11-05T00:11:16.762Z,19.56
2022-11-05T00:13:46.172Z,19.55
2022-11-05T00:16:14.149Z,19.56
2022-11-05T00:18:42.221Z,19.56
2022-11-05T00:21:10.297Z,19.56
2022-11-05T00:23:38.476Z,19.57
2022-11-05T00:26:09.112Z,19.55
2022-11-05T00:28:38.177Z,19.54
2022-11-05T00:31:11.210Z,19.53
2022-11-05T00:33:40.536Z,19.53
2022-11-05T00:36:11.401Z,19.52
2022-11-05T00:38:39.624Z,19.51
2022-11-05T00:41:07.674Z,19.51
2022-11-05T00:43:35.977Z,19.49
2022-11-05T00:46:04.064Z,19.47
2022-11-05T00:48:32.337Z,19.46
2022-11-05T00:51:00.614Z,19.45
2022-11-05T00:53:29.206Z,19.43
2022-11-05T00:55:57.176Z,19.40
2022-11-05T00:58:25.252Z,19.37
2022-11-05T01:00:56.245Z,19.34
2022-11-05T01:03:36.344Z,19.31
2022-11-05T01:06:13.569Z,19.27
2022-11-05T01:08:44.369Z,19.24
2022-11-05T01:11:16.179Z,19.20
2022-11-05T01:13:44.615Z,19.16
2022-11-05T01:16:13.249Z,19.11
2022-11-05T01:18:41.381Z,19.07
2022-11-05T01:21:14.060Z,19.05
2022-11-05T01:23:42.237Z,19.02
2022-11-05T01:26:10.454Z,18.99
2022-11-05T01:28:38.851Z,18.95
2022-11-05T01:31:07.183Z,18.90
2022-11-05T01:33:35.361Z,18.87
2022-11-05T01:36:05.486Z,18.85
2022-11-05T01:38:33.560Z,18.84
2022-11-05T01:41:01.639Z,18.83
2022-11-05T01:43:56.188Z,18.81
2022-11-05T01:46:40.895Z,18.79
2022-11-05T01:49:32.700Z,18.77
2022-11-05T01:52:04.688Z,18.76
2022-11-05T01:54:34.886Z,18.75
2022-11-05T01:57:08.167Z,18.75
2022-11-05T01:59:48.584Z,18.73
2022-11-05T02:02:18.044Z,18.72
2022-11-05T02:04:55.103Z,18.71
2022-11-05T02:07:25.609Z,18.70
2022-11-05T02:10:02.321Z,18.69
2022-11-05T02:12:33.042Z,18.69
2022-11-05T02:15:01.032Z,18.68
2022-11-05T02:17:47.733Z,18.66
2022-11-05T02:20:34.126Z,18.64
2022-11-05T02:23:08.177Z,18.61
2022-11-05T02:26:12.746Z,18.60
2022-11-05T02:28:51.466Z,18.56
2022-11-05T02:31:41.651Z,18.53
2022-11-05T02:34:32.444Z,18.50
2022-11-05T02:37:14.732Z,18.47
2022-11-05T02:40:15.144Z,18.45
2022-11-05T02:42:54.386Z,18.44
2022-11-05T02:45:46.718Z,18.41
2022-11-05T02:48:22.209Z,18.37
2022-11-05T02:51:10.025Z,18.34
2022-11-05T02:54:03.245Z,18.31
2022-11-05T02:56:36.119Z,18.28
2022-11-05T02:59:04.299Z,18.27
2022-11-05T03:01:32.686Z,18.25
2022-11-05T03:04:04.039Z,18.23
2022-11-05T03:06:54.011Z,18.23
2022-11-05T03:09:28.610Z,18.22
2022-11-05T03:11:56.620Z,18.21
2022-11-05T03:14:24.688Z,18.22
2022-11-05T03:17:10.145Z,18.21
2022-11-05T03:19:38.117Z,18.19
2022-11-05T03:22:14.100Z,18.16
2022-11-05T03:24:49.149Z,18.14
2022-11-05T03:27:21.728Z,18.11
2022-11-05T03:29:54.808Z,18.09
2022-11-05T03:32:24.726Z,18.06
2022-11-05T03:35:00.148Z,18.04
2022-11-05T03:37:34.247Z,18.03
2022-11-05T03:40:06.689Z,18.04
2022-11-05T03:42:38.992Z,18.03
2022-11-05T03:45:25.914Z,18.02
2022-11-05T03:47:58.134Z,18.02
2022-11-05T03:51:01.465Z,18.01
2022-11-05T03:53:36.870Z,18.00
2022-11-05T03:56:18.192Z,18.00
2022-11-05T03:58:48.439Z,17.99
2022-11-05T04:01:16.711Z,17.97
2022-11-05T04:03:44.972Z,17.96
2022-11-05T04:06:14.018Z,17.95
2022-11-05T04:08:42.248Z,17.95
2022-11-05T04:11:11.702Z,17.95
2022-11-05T04:13:40.141Z,17.94
2022-11-05T04:16:08.215Z,17.93
2022-11-05T04:18:36.600Z,17.93
2022-11-05T04:21:06.218Z,17.92
2022-11-05T04:23:34.286Z,17.93
2022-11-05T04:26:02.399Z,17.93
2022-11-05T04:28:30.850Z,17.93
2022-11-05T04:30:59.034Z,17.93
2022-11-05T04:33:27.111Z,17.93
2022-11-05T04:35:55.286Z,17.93
2022-11-05T04:38:23.869Z,17.94
2022-11-05T04:40:52.046Z,17.93
2022-11-05T04:43:20.339Z,17.92
2022-11-05T04:45:48.815Z,17.91
2022-11-05T04:48:17.095Z,17.89
2022-11-05T04:50:45.270Z,17.88
2022-11-05T04:53:13.681Z,17.87
2022-11-05T04:55:41.936Z,17.86
2022-11-05T04:58:10.421Z,17.84
2022-11-05T05:00:38.526Z,17.82
2022-11-05T05:03:06.881Z,17.80
2022-11-05T05:05:35.535Z,17.78
2022-11-05T05:08:07.017Z,17.76
2022-11-05T05:10:35.097Z,17.75
2022-11-05T05:13:03.281Z,17.75
2022-11-05T05:15:31.458Z,17.74
2022-11-05T05:17:59.633Z,17.74
2022-11-05T05:20:28.117Z,17.73
2022-11-05T05:22:56.403Z,17.71
2022-11-05T05:25:24.577Z,17.71
2022-11-05T05:27:52.864Z,17.71
2022-11-05T05:30:21.139Z,17.71
2022-11-05T05:32:49.322Z,17.70
2022-11-05T05:35:17.596Z,17.70
2022-11-05T05:37:45.677Z,17.69
2022-11-05T05:40:13.853Z,17.66
2022-11-05T05:42:43.584Z,17.63
2022-11-05T05:45:12.461Z,17.60
2022-11-05T05:47:40.535Z,17.58
2022-11-05T05:50:08.714Z,17.54
2022-11-05T05:52:36.897Z,17.51
2022-11-05T05:55:05.595Z,17.49
2022-11-05T05:57:34.682Z,17.46
2022-11-05T06:00:03.987Z,17.43
2022-11-05T06:02:32.189Z,17.41
2022-11-05T06:05:00.311Z,17.38
2022-11-05T06:07:31.777Z,17.35
2022-11-05T06:10:02.943Z,17.33
2022-11-05T06:12:31.134Z,17.31
2022-11-05T06:14:59.300Z,17.28
2022-11-05T06:17:27.499Z,17.27
2022-11-05T06:19:55.757Z,17.25
2022-11-05T06:22:23.936Z,17.25
2022-11-05T06:24:52.013Z,17.25
2022-11-05T06:27:20.393Z,17.23
2022-11-05T06:29:48.394Z,17.21
2022-11-05T06:32:16.649Z,17.20
2022-11-05T06:34:44.732Z,17.17
2022-11-05T06:37:12.817Z,17.15
2022-11-05T06:39:41.183Z,17.12
2022-11-05T06:42:18.399Z,17.09
2022-11-05T06:44:47.472Z,17.05
2022-11-05T06:47:15.648Z,17.01
2022-11-05T06:49:43.821Z,16.96
2022-11-05T06:52:13.330Z,16.90
2022-11-05T06:54:42.227Z,16.87
2022-11-05T06:57:12.261Z,16.83
2022-11-05T06:59:40.861Z,16.79
2022-11-05T07:02:12.523Z,16.77
2022-11-05T07:04:40.771Z,16.75
2022-11-05T07:07:08.949Z,16.77
2022-11-05T07:09:37.541Z,16.84
2022-11-05T07:12:06.136Z,16.97
2022-11-05T07:14:34.209Z,17.11
2022-11-05T07:17:02.589Z,17.28
2022-11-05T07:19:30.902Z,17.46
2022-11-05T07:21:59.054Z,17.73
2022-11-05T07:24:27.223Z,18.12
2022-11-05T07:26:55.401Z,18.43
2022-11-05T07:29:23.683Z,18.62
2022-11-05T07:31:51.763Z,18.72
2022-11-05T07:34:20.145Z,18.83
2022-11-05T07:36:48.450Z,18.95
2022-11-05T07:39:16.708Z,19.04
2022-11-05T07:41:44.882Z,19.12
2022-11-05T07:44:13.170Z,19.21
2022-11-05T07:46:42.057Z,19.29
2022-11-05T07:49:10.133Z,19.37
2022-11-05T07:51:38.316Z,19.46
2022-11-05T07:54:06.490Z,19.55
2022-11-05T07:56:34.770Z,19.61
2022-11-05T07:59:03.051Z,19.68
2022-11-05T08:01:31.353Z,19.74
2022-11-05T08:03:59.718Z,19.80
2022-11-05T08:06:27.889Z,19.87
2022-11-05T08:08:56.071Z,19.94
2022-11-05T08:11:24.159Z,20.03
2022-11-05T08:13:52.323Z,20.11
2022-11-05T08:16:20.500Z,20.20
2022-11-05T08:18:48.684Z,20.30
2022-11-05T08:21:16.861Z,20.39
2022-11-05T08:23:45.039Z,20.49
2022-11-05T08:26:13.420Z,20.60
2022-11-05T08:28:41.599Z,20.71
2022-11-05T08:31:09.781Z,20.81
2022-11-05T08:33:37.961Z,20.91
2022-11-05T08:36:06.448Z,21.02
2022-11-05T08:38:34.618Z,21.14
2022-11-05T08:41:02.701Z,21.26
2022-11-05T08:43:30.873Z,21.39
2022-11-05T08:46:01.200Z,21.53
2022-11-05T08:48:29.627Z,21.68
2022-11-05T08:51:00.688Z,21.83
2022-11-05T08:53:28.806Z,21.97
2022-11-05T08:56:00.696Z,22.09
2022-11-05T08:58:28.854Z,22.25
2022-11-05T09:01:01.782Z,22.39
2022-11-05T09:03:32.880Z,22.55
2022-11-05T09:06:01.059Z,22.69
2022-11-05T09:08:29.234Z,22.82
2022-11-05T09:10:57.926Z,22.96
2022-11-05T09:13:26.835Z,23.10
2022-11-05T09:15:55.510Z,23.23
2022-11-05T09:18:23.689Z,23.37
2022-11-05T09:20:52.875Z,23.51
2022-11-05T09:23:20.967Z,23.63
2022-11-05T09:25:49.145Z,23.74
2022-11-05T09:28:20.060Z,23.86
2022-11-05T09:30:50.788Z,23.96
2022-11-05T09:33:22.171Z,24.07
2022-11-05T09:35:51.683Z,24.17
2022-11-05T09:38:19.978Z,24.27
2022-11-05T09:41:00.449Z,24.37
2022-11-05T09:43:37.606Z,24.48
2022-11-05T09:46:12.124Z,24.56
2022-11-05T09:48:42.554Z,24.65
2022-11-05T09:51:19.269Z,24.71
2022-11-05T09:53:51.702Z,24.72
2022-11-05T09:56:26.742Z,24.67
2022-11-05T09:59:22.984Z,24.65
2022-11-05T10:01:56.716Z,24.65
2022-11-05T10:04:25.473Z,24.68
2022-11-05T10:06:58.545Z,24.73
2022-11-05T10:09:43.709Z,24.80
2022-11-05T10:12:39.281Z,24.90
2022-11-05T10:15:41.229Z,25.01
2022-11-05T10:18:23.302Z,25.08
2022-11-05T10:20:51.643Z,25.12
2022-11-05T10:23:22.110Z,25.18
2022-11-05T10:26:09.099Z,25.22
2022-11-05T10:28:39.742Z,25.26
2022-11-05T10:31:15.174Z,25.28
2022-11-05T10:34:03.154Z,25.29
2022-11-05T10:36:36.962Z,25.31
2022-11-05T10:39:17.688Z,25.34
2022-11-05T10:42:04.557Z,25.40
2022-11-05T10:44:52.370Z,25.47
2022-11-05T10:47:52.595Z,25.53
2022-11-05T10:50:25.219Z,25.54
2022-11-05T10:53:13.575Z,25.58
2022-11-05T10:55:46.531Z,25.62
2022-11-05T10:58:17.635Z,25.65
2022-11-05T11:00:52.325Z,25.64
2022-11-05T11:03:34.779Z,25.64
2022-11-05T11:06:12.776Z,25.69
2022-11-05T11:08:45.437Z,25.76
2022-11-05T11:11:30.216Z,25.86
2022-11-05T11:13:59.925Z,25.94
2022-11-05T11:16:32.863Z,26.02
2022-11-05T11:19:02.593Z,26.09
2022-11-05T11:21:32.345Z,26.15
2022-11-05T11:24:05.850Z,26.18
2022-11-05T11:26:37.232Z,26.19
2022-11-05T11:29:05.275Z,26.21
2022-11-05T11:31:38.530Z,26.29
2022-11-05T11:34:20.760Z,26.44
2022-11-05T11:36:56.803Z,26.86
2022-11-05T11:39:29.403Z,26.99
2022-11-05T11:42:01.722Z,27.00
2022-11-05T11:44:34.820Z,26.97
2022-11-05T11:47:13.378Z,26.97
2022-11-05T11:49:58.033Z,26.91
2022-11-05T11:52:37.094Z,26.85
2022-11-05T11:55:11.287Z,26.77
2022-11-05T11:57:53.984Z,26.76
2022-11-05T12:00:24.723Z,26.82
2022-11-05T12:03:11.742Z,26.90
2022-11-05T12:06:01.817Z,26.93
2022-11-05T12:08:30.084Z,26.95
2022-11-05T12:11:00.819Z,26.99
2022-11-05T12:13:54.058Z,27.01
2022-11-05T12:16:25.215Z,27.03
2022-11-05T12:19:03.225Z,27.03
2022-11-05T12:21:58.429Z,27.07
2022-11-05T12:25:02.921Z,27.09
2022-11-05T12:27:40.501Z,27.13
2022-11-05T12:30:14.972Z,27.17
2022-11-05T12:33:07.722Z,27.27
2022-11-05T12:36:07.675Z,27.34
2022-11-05T12:38:52.739Z,27.37
2022-11-05T12:41:49.782Z,27.37
2022-11-05T12:44:23.891Z,27.39
2022-11-05T12:47:01.175Z,27.40
2022-11-05T12:49:44.395Z,27.46
2022-11-05T12:52:52.591Z,27.46
2022-11-05T12:55:24.551Z,27.39
2022-11-05T12:57:55.188Z,27.37
2022-11-05T13:00:26.086Z,27.35
2022-11-05T13:03:06.584Z,27.34
2022-11-05T13:05:44.074Z,27.28
2022-11-05T13:08:29.145Z,27.22
2022-11-05T13:11:19.111Z,27.13
2022-11-05T13:14:11.875Z,27.10
2022-11-05T13:17:02.497Z,27.09
2022-11-05T13:19:57.575Z,27.06
2022-11-05T13:23:01.423Z,27.08
2022-11-05T13:25:34.773Z,27.10
2022-11-05T13:28:25.421Z,27.14
2022-11-05T13:30:58.024Z,27.21
2022-11-05T13:33:47.457Z,27.23
2022-11-05T13:36:20.882Z,27.18
2022-11-05T13:39:21.794Z,27.12
2022-11-05T13:42:05.305Z,27.09
2022-11-05T13:45:11.244Z,26.99
2022-11-05T13:47:54.985Z,26.87
2022-11-05T13:50:42.905Z,26.77
2022-11-05T13:53:48.640Z,26.78
2022-11-05T13:56:53.658Z,26.80
2022-11-05T13:59:49.982Z,26.77
2022-11-05T14:02:22.807Z,26.75
2022-11-05T14:05:00.785Z,26.78
2022-11-05T14:07:33.443Z,26.85
2022-11-05T14:10:21.585Z,26.90
2022-11-05T14:12:53.346Z,26.96
2022-11-05T14:15:25.217Z,27.01
2022-11-05T14:18:34.958Z,27.07
2022-11-05T14:21:05.482Z,27.14
2022-11-05T14:23:40.395Z,27.17
2022-11-05T14:26:11.844Z,27.17
2022-11-05T14:28:46.623Z,27.19
2022-11-05T14:31:47.405Z,27.20
2022-11-05T14:34:20.859Z,27.19
2022-11-05T14:37:10.763Z,27.18
2022-11-05T14:39:40.479Z,27.18
2022-11-05T14:42:22.795Z,27.15
2022-11-05T14:45:30.052Z,27.09
2022-11-05T14:48:05.040Z,27.06
2022-11-05T14:50:41.808Z,27.01
2022-11-05T14:53:12.147Z,26.94
2022-11-05T14:55:43.640Z,26.89
2022-11-05T14:58:18.057Z,26.84
2022-11-05T15:00:48.012Z,26.67
2022-11-05T15:03:47.062Z,26.47
2022-11-05T15:06:37.145Z,26.27
2022-11-05T15:09:40.723Z,26.23
2022-11-05T15:12:20.059Z,26.25
2022-11-05T15:15:21.210Z,26.28
2022-11-05T15:17:58.985Z,26.27
2022-11-05T15:20:44.663Z,26.29
2022-11-05T15:23:19.627Z,26.35
2022-11-05T15:26:30.770Z,26.36
2022-11-05T15:29:01.114Z,26.32
2022-11-05T15:31:34.698Z,26.16
2022-11-05T15:34:27.525Z,26.00
2022-11-05T15:37:03.073Z,25.82
2022-11-05T15:39:44.144Z,25.61
2022-11-05T15:42:15.294Z,25.44
2022-11-05T15:45:03.730Z,25.33
2022-11-05T15:47:35.281Z,25.28
2022-11-05T15:50:14.690Z,25.25
2022-11-05T15:52:52.471Z,25.22
2022-11-05T15:55:25.827Z,25.20
2022-11-05T15:57:56.647Z,25.15
2022-11-05T16:00:31.195Z,24.99
2022-11-05T16:03:03.440Z,24.83
2022-11-05T16:05:35.773Z,24.65
2022-11-05T16:08:04.200Z,24.48
2022-11-05T16:10:36.983Z,24.29
2022-11-05T16:13:50.595Z,24.15
2022-11-05T16:16:18.782Z,23.96
2022-11-05T16:18:47.422Z,23.88
2022-11-05T16:21:20.526Z,23.85
2022-11-05T16:23:48.814Z,23.84
2022-11-05T16:29:35.645Z,23.79
2022-11-05T16:32:31.145Z,23.73
2022-11-05T16:35:02.947Z,23.66
2022-11-05T16:37:40.301Z,23.63
2022-11-05T16:40:18.185Z,23.60
2022-11-05T16:42:46.985Z,23.58
2022-11-05T16:45:17.178Z,23.55
2022-11-05T16:47:46.207Z,23.51
2022-11-05T16:50:27.408Z,23.44
2022-11-05T16:52:55.663Z,23.37
2022-11-05T16:55:24.047Z,23.29
2022-11-05T16:57:54.669Z,23.20
2022-11-05T17:00:24.634Z,23.11
2022-11-05T17:02:53.590Z,23.02
2022-11-05T17:05:27.607Z,22.94
2022-11-05T17:07:56.306Z,22.86
2022-11-05T17:10:26.116Z,22.76
2022-11-05T17:12:54.603Z,22.69
2022-11-05T17:15:31.111Z,22.63
2022-11-05T17:17:59.985Z,22.58
2022-11-05T17:20:34.963Z,22.54
2022-11-05T17:23:07.687Z,22.49
2022-11-05T17:25:36.274Z,22.45
2022-11-05T17:28:05.067Z,22.40
2022-11-05T17:30:33.558Z,22.37
2022-11-05T17:33:01.717Z,22.35
2022-11-05T17:35:30.205Z,22.35
2022-11-05T17:37:58.383Z,22.31
2022-11-05T17:40:26.457Z,22.27
2022-11-05T17:42:54.729Z,22.22
2022-11-05T17:45:23.120Z,22.18
2022-11-05T17:47:51.479Z,22.16
2022-11-05T17:50:20.294Z,22.13
2022-11-05T17:52:48.560Z,22.10
2022-11-05T17:55:16.848Z,22.07
2022-11-05T17:57:50.501Z,22.04
2022-11-05T18:00:23.790Z,22.00
2022-11-05T18:02:53.757Z,21.97
2022-11-05T18:05:23.092Z,21.94
2022-11-05T18:07:51.645Z,21.92
2022-11-05T18:10:20.458Z,21.90
2022-11-05T18:12:49.110Z,21.87
2022-11-05T18:15:18.145Z,21.84
2022-11-05T18:17:46.636Z,21.81
2022-11-05T18:20:19.220Z,21.81
2022-11-05T18:22:52.105Z,21.79
2022-11-05T18:25:20.273Z,21.79
2022-11-05T18:27:48.348Z,21.79
2022-11-05T18:30:16.885Z,21.79
2022-11-05T18:32:45.372Z,21.78
2022-11-05T18:35:13.707Z,21.76
2022-11-05T18:37:42.209Z,21.74
2022-11-05T18:40:10.980Z,21.70
2022-11-05T18:42:39.985Z,21.64
2022-11-05T18:45:09.808Z,21.57
2022-11-05T18:47:38.187Z,21.51
2022-11-05T18:50:07.815Z,21.45
2022-11-05T18:52:36.274Z,21.39
2022-11-05T18:55:04.859Z,21.33
2022-11-05T18:57:34.227Z,21.27
2022-11-05T19:00:02.404Z,21.22
2022-11-05T19:02:30.793Z,21.17
2022-11-05T19:07:47.445Z,21.08
2022-11-05T19:10:16.034Z,21.04
2022-11-05T19:12:44.212Z,20.97
2022-11-05T19:15:12.497Z,20.92
2022-11-05T19:17:40.656Z,20.90
2022-11-05T19:20:09.666Z,20.86
2022-11-05T19:22:37.886Z,20.81
2022-11-05T19:25:06.741Z,20.74
2022-11-05T19:27:35.958Z,20.68
2022-11-05T19:30:06.578Z,20.62
2022-11-05T19:32:34.653Z,20.57
2022-11-05T19:35:02.852Z,20.50
2022-11-05T19:37:31.394Z,20.45
2022-11-05T19:39:59.704Z,20.40
2022-11-05T19:42:27.883Z,20.37
2022-11-05T19:44:56.261Z,20.33
2022-11-05T19:47:24.448Z,20.29
2022-11-05T19:49:52.540Z,20.26
2022-11-05T19:52:21.414Z,20.22
2022-11-05T19:54:49.462Z,20.16
2022-11-05T19:57:17.664Z,20.11
2022-11-05T19:59:45.740Z,20.05
2022-11-05T20:02:16.485Z,20.01
2022-11-05T20:04:44.757Z,19.98
2022-11-05T20:07:13.042Z,19.96
2022-11-05T20:09:41.533Z,19.91
2022-11-05T20:12:09.827Z,19.89
2022-11-05T20:14:38.289Z,19.87
2022-11-05T20:17:06.365Z,19.86
2022-11-05T20:19:34.543Z,19.84
2022-11-05T20:22:02.723Z,19.82
2022-11-05T20:24:31.001Z,19.78
2022-11-05T20:26:59.079Z,19.75
2022-11-05T20:29:33.811Z,19.73
2022-11-05T20:32:04.542Z,19.71
2022-11-05T20:34:34.065Z,19.70
2022-11-05T20:37:02.439Z,19.68
2022-11-05T20:39:30.823Z,19.65
2022-11-05T20:41:58.994Z,19.60
2022-11-05T20:44:27.173Z,19.55
2022-11-05T20:46:55.919Z,19.50
2022-11-05T20:49:25.844Z,19.45
2022-11-05T20:51:54.578Z,19.40
2022-11-05T20:54:23.268Z,19.38
2022-11-05T20:56:51.650Z,19.38
2022-11-05T20:59:19.793Z,19.38
2022-11-05T21:01:50.195Z,19.37
2022-11-05T21:04:18.802Z,19.36
2022-11-05T21:06:46.818Z,19.33
2022-11-05T21:09:14.994Z,19.32
2022-11-05T21:11:43.507Z,19.31
2022-11-05T21:14:11.658Z,19.30
2022-11-05T21:16:39.836Z,19.28
2022-11-05T21:19:08.323Z,19.26
2022-11-05T21:21:40.781Z,19.22
2022-11-05T21:24:09.607Z,19.18
2022-11-05T21:26:37.606Z,19.15
2022-11-05T21:29:05.847Z,19.11
2022-11-05T21:31:37.709Z,19.06
2022-11-05T21:34:05.893Z,19.01
2022-11-05T21:36:34.062Z,18.97
2022-11-05T21:39:02.353Z,18.93
2022-11-05T21:41:30.678Z,18.89
2022-11-05T21:43:59.110Z,18.85
2022-11-05T21:46:27.662Z,18.84
2022-11-05T21:48:55.876Z,18.84
2022-11-05T21:51:23.952Z,18.81
2022-11-05T21:53:52.334Z,18.79
2022-11-05T21:56:24.123Z,18.76
2022-11-05T21:58:52.278Z,18.74
2022-11-05T22:01:20.665Z,18.70
2022-11-05T22:03:48.762Z,18.66
2022-11-05T22:06:17.013Z,18.64
2022-11-05T22:08:45.212Z,18.62
2022-11-05T22:11:13.471Z,18.59
2022-11-05T22:13:41.652Z,18.56
2022-11-05T22:16:09.833Z,18.53
2022-11-05T22:18:38.104Z,18.49
2022-11-05T22:21:06.595Z,18.43
2022-11-05T22:23:34.985Z,18.39
2022-11-05T22:26:03.067Z,18.34
2022-11-05T22:28:31.233Z,18.29
2022-11-05T22:30:59.716Z,18.26
2022-11-05T22:33:27.812Z,18.23
2022-11-05T22:35:55.980Z,18.19
2022-11-05T22:38:24.521Z,18.16
2022-11-05T22:40:52.845Z,18.15
2022-11-05T22:43:21.020Z,18.13
2022-11-05T22:45:49.506Z,18.12
2022-11-05T22:48:17.583Z,18.10
2022-11-05T22:50:45.761Z,18.10
2022-11-05T22:53:14.268Z,18.10
2022-11-05T22:55:42.320Z,18.09
2022-11-05T22:58:11.123Z,18.07
2022-11-05T23:00:40.121Z,18.04
2022-11-05T23:03:11.083Z,18.02
2022-11-05T23:05:39.336Z,18.00
2022-11-05T23:08:07.627Z,17.97
2022-11-05T23:10:38.654Z,17.95
2022-11-05T23:13:06.708Z,17.91
2022-11-05T23:15:35.016Z,17.89
2022-11-05T23:18:03.120Z,17.87
2022-11-05T23:20:31.470Z,17.85
2022-11-05T23:22:59.754Z,17.86
2022-11-05T23:25:28.037Z,17.86
2022-11-05T23:27:56.311Z,17.86
2022-11-05T23:30:27.021Z,17.86
2022-11-05T23:32:56.197Z,17.85
2022-11-05T23:35:24.736Z,17.84
2022-11-05T23:37:52.810Z,17.81
2022-11-05T23:40:28.154Z,17.81
2022-11-05T23:42:57.605Z,17.77
2022-11-05T23:45:26.249Z,17.75
2022-11-05T23:47:54.633Z,17.74
2022-11-05T23:50:23.015Z,17.72
2022-11-05T23:52:53.581Z,17.71
2022-11-05T23:55:25.410Z,17.67
2022-11-05T23:57:53.520Z,17.65
